sensor_id;sensor_type;location;lat;lon;timestamp;temperature;humidity
68922;DHT22;55959;51.244;5.724;2023-03-05T00:01:42;9.60;59.70
68922;DHT22;55959;51.244;5.724;2023-03-05T00:04:13;9.50;59.70
68922;DHT22;55959;51.244;5.724;2023-03-05T00:06:40;9.50;59.70
68922;DHT22;55959;51.244;5.724;2023-03-05T00:09:06;9.50;59.80
68922;DHT22;55959;51.244;5.724;2023-03-05T00:11:32;9.50;59.90
68922;DHT22;55959;51.244;5.724;2023-03-05T00:14:00;9.50;60.00
68922;DHT22;55959;51.244;5.724;2023-03-05T00:16:29;9.50;60.00
68922;DHT22;55959;51.244;5.724;2023-03-05T00:18:56;9.50;60.00
68922;DHT22;55959;51.244;5.724;2023-03-05T00:21:30;9.50;60.20
68922;DHT22;55959;51.244;5.724;2023-03-05T00:23:59;9.50;60.20
68922;DHT22;55959;51.244;5.724;2023-03-05T00:26:27;9.50;60.30
68922;DHT22;55959;51.244;5.724;2023-03-05T00:28:54;9.50;60.40
68922;DHT22;55959;51.244;5.724;2023-03-05T00:31:23;9.40;60.40
68922;DHT22;55959;51.244;5.724;2023-03-05T00:33:53;9.50;60.60
68922;DHT22;55959;51.244;5.724;2023-03-05T00:36:21;9.50;60.60
68922;DHT22;55959;51.244;5.724;2023-03-05T00:38:47;9.50;60.70
68922;DHT22;55959;51.244;5.724;2023-03-05T00:41:13;9.40;60.70
68922;DHT22;55959;51.244;5.724;2023-03-05T00:43:39;9.40;60.70
68922;DHT22;55959;51.244;5.724;2023-03-05T00:46:04;9.40;60.70
68922;DHT22;55959;51.244;5.724;2023-03-05T00:48:30;9.40;60.70
68922;DHT22;55959;51.244;5.724;2023-03-05T00:50:56;9.40;60.80
68922;DHT22;55959;51.244;5.724;2023-03-05T00:53:22;9.40;60.80
68922;DHT22;55959;51.244;5.724;2023-03-05T00:55:47;9.40;60.90
68922;DHT22;55959;51.244;5.724;2023-03-05T00:58:13;9.40;61.00
68922;DHT22;55959;51.244;5.724;2023-03-05T01:00:39;9.40;61.00
68922;DHT22;55959;51.244;5.724;2023-03-05T01:03:05;9.40;61.00
68922;DHT22;55959;51.244;5.724;2023-03-05T01:05:31;9.40;61.20
68922;DHT22;55959;51.244;5.724;2023-03-05T01:07:57;9.40;61.20
68922;DHT22;55959;51.244;5.724;2023-03-05T01:10:24;9.40;61.30
68922;DHT22;55959;51.244;5.724;2023-03-05T01:12:54;9.30;61.40
68922;DHT22;55959;51.244;5.724;2023-03-05T01:15:21;9.40;61.60
68922;DHT22;55959;51.244;5.724;2023-03-05T01:17:48;9.40;61.60
68922;DHT22;55959;51.244;5.724;2023-03-05T01:20:15;9.30;61.60
68922;DHT22;55959;51.244;5.724;2023-03-05T01:22:42;9.30;61.60
68922;DHT22;55959;51.244;5.724;2023-03-05T01:25:10;9.30;61.70
68922;DHT22;55959;51.244;5.724;2023-03-05T01:27:37;9.30;61.80
68922;DHT22;55959;51.244;5.724;2023-03-05T01:30:03;9.30;61.80
68922;DHT22;55959;51.244;5.724;2023-03-05T01:32:32;9.30;61.90
68922;DHT22;55959;51.244;5.724;2023-03-05T01:35:01;9.30;61.90
68922;DHT22;55959;51.244;5.724;2023-03-05T01:37:27;9.30;62.00
68922;DHT22;55959;51.244;5.724;2023-03-05T01:39:53;9.20;61.90
68922;DHT22;55959;51.244;5.724;2023-03-05T01:42:19;9.20;62.00
68922;DHT22;55959;51.244;5.724;2023-03-05T01:45:17;9.10;62.00
68922;DHT22;55959;51.244;5.724;2023-03-05T01:47:44;9.10;62.00
68922;DHT22;55959;51.244;5.724;2023-03-05T01:50:15;9.10;62.00
68922;DHT22;55959;51.244;5.724;2023-03-05T01:52:47;9.10;62.10
68922;DHT22;55959;51.244;5.724;2023-03-05T01:55:25;9.00;62.20
68922;DHT22;55959;51.244;5.724;2023-03-05T01:58:09;9.00;62.30
68922;DHT22;55959;51.244;5.724;2023-03-05T02:00:42;9.00;62.40
68922;DHT22;55959;51.244;5.724;2023-03-05T02:03:09;9.00;62.40
68922;DHT22;55959;51.244;5.724;2023-03-05T02:05:38;9.00;62.40
68922;DHT22;55959;51.244;5.724;2023-03-05T02:08:08;9.00;62.60
68922;DHT22;55959;51.244;5.724;2023-03-05T02:10:47;8.90;62.60
68922;DHT22;55959;51.244;5.724;2023-03-05T02:13:21;8.90;62.60
68922;DHT22;55959;51.244;5.724;2023-03-05T02:15:48;8.90;62.60
68922;DHT22;55959;51.244;5.724;2023-03-05T02:18:16;8.90;62.60
68922;DHT22;55959;51.244;5.724;2023-03-05T02:21:06;8.90;62.80
68922;DHT22;55959;51.244;5.724;2023-03-05T02:23:34;8.90;62.80
68922;DHT22;55959;51.244;5.724;2023-03-05T02:26:06;8.80;62.70
68922;DHT22;55959;51.244;5.724;2023-03-05T02:28:56;8.80;62.80
68922;DHT22;55959;51.244;5.724;2023-03-05T02:31:24;8.80;63.80
68922;DHT22;55959;51.244;5.724;2023-03-05T02:33:52;8.80;63.00
68922;DHT22;55959;51.244;5.724;2023-03-05T02:36:19;8.80;63.10
68922;DHT22;55959;51.244;5.724;2023-03-05T02:38:45;8.80;63.20
68922;DHT22;55959;51.244;5.724;2023-03-05T02:41:12;8.80;63.30
68922;DHT22;55959;51.244;5.724;2023-03-05T02:43:38;8.80;63.40
68922;DHT22;55959;51.244;5.724;2023-03-05T02:46:04;8.70;63.40
68922;DHT22;55959;51.244;5.724;2023-03-05T02:48:30;8.70;63.40
68922;DHT22;55959;51.244;5.724;2023-03-05T02:50:57;8.80;63.50
68922;DHT22;55959;51.244;5.724;2023-03-05T02:53:24;8.70;63.50
68922;DHT22;55959;51.244;5.724;2023-03-05T02:55:51;8.70;63.60
68922;DHT22;55959;51.244;5.724;2023-03-05T02:58:17;8.70;63.60
68922;DHT22;55959;51.244;5.724;2023-03-05T03:00:43;8.70;63.60
68922;DHT22;55959;51.244;5.724;2023-03-05T03:03:11;8.70;63.70
68922;DHT22;55959;51.244;5.724;2023-03-05T03:05:37;8.70;63.80
68922;DHT22;55959;51.244;5.724;2023-03-05T03:08:03;8.70;63.80
68922;DHT22;55959;51.244;5.724;2023-03-05T03:10:29;8.70;64.10
68922;DHT22;55959;51.244;5.724;2023-03-05T03:12:55;8.70;64.20
68922;DHT22;55959;51.244;5.724;2023-03-05T03:15:21;8.60;64.40
68922;DHT22;55959;51.244;5.724;2023-03-05T03:17:47;8.70;64.60
68922;DHT22;55959;51.244;5.724;2023-03-05T03:20:14;8.60;64.60
68922;DHT22;55959;51.244;5.724;2023-03-05T03:22:42;8.60;64.80
68922;DHT22;55959;51.244;5.724;2023-03-05T03:25:14;8.70;64.80
68922;DHT22;55959;51.244;5.724;2023-03-05T03:27:41;8.70;65.00
68922;DHT22;55959;51.244;5.724;2023-03-05T03:30:08;8.60;64.90
68922;DHT22;55959;51.244;5.724;2023-03-05T03:32:34;8.60;65.00
68922;DHT22;55959;51.244;5.724;2023-03-05T03:35:00;8.60;65.00
68922;DHT22;55959;51.244;5.724;2023-03-05T03:37:27;8.70;65.20
68922;DHT22;55959;51.244;5.724;2023-03-05T03:39:53;8.70;65.20
68922;DHT22;55959;51.244;5.724;2023-03-05T03:42:20;8.60;65.20
68922;DHT22;55959;51.244;5.724;2023-03-05T03:44:47;8.70;65.30
68922;DHT22;55959;51.244;5.724;2023-03-05T03:47:13;8.70;65.20
68922;DHT22;55959;51.244;5.724;2023-03-05T03:49:39;8.70;65.40
68922;DHT22;55959;51.244;5.724;2023-03-05T03:52:05;8.70;65.30
68922;DHT22;55959;51.244;5.724;2023-03-05T03:54:34;8.70;65.30
68922;DHT22;55959;51.244;5.724;2023-03-05T03:57:02;8.70;65.20
68922;DHT22;55959;51.244;5.724;2023-03-05T03:59:28;8.70;65.30
68922;DHT22;55959;51.244;5.724;2023-03-05T04:01:53;8.70;65.40
68922;DHT22;55959;51.244;5.724;2023-03-05T04:04:19;8.70;65.40
68922;DHT22;55959;51.244;5.724;2023-03-05T04:06:45;8.70;65.40
68922;DHT22;55959;51.244;5.724;2023-03-05T04:09:11;8.60;65.40
68922;DHT22;55959;51.244;5.724;2023-03-05T04:11:37;8.60;65.40
68922;DHT22;55959;51.244;5.724;2023-03-05T04:14:04;8.60;65.40
68922;DHT22;55959;51.244;5.724;2023-03-05T04:16:30;8.70;65.50
68922;DHT22;55959;51.244;5.724;2023-03-05T04:18:56;8.70;65.60
68922;DHT22;55959;51.244;5.724;2023-03-05T04:21:22;8.60;65.60
68922;DHT22;55959;51.244;5.724;2023-03-05T04:23:49;8.60;65.60
68922;DHT22;55959;51.244;5.724;2023-03-05T04:26:14;8.60;65.60
68922;DHT22;55959;51.244;5.724;2023-03-05T04:28:40;8.60;65.60
68922;DHT22;55959;51.244;5.724;2023-03-05T04:31:06;8.60;65.60
68922;DHT22;55959;51.244;5.724;2023-03-05T04:33:33;8.60;65.80
68922;DHT22;55959;51.244;5.724;2023-03-05T04:35:59;8.60;65.80
68922;DHT22;55959;51.244;5.724;2023-03-05T04:38:25;8.50;65.80
68922;DHT22;55959;51.244;5.724;2023-03-05T04:40:51;8.50;65.80
68922;DHT22;55959;51.244;5.724;2023-03-05T04:43:17;8.50;65.80
68922;DHT22;55959;51.244;5.724;2023-03-05T04:45:43;8.50;65.90
68922;DHT22;55959;51.244;5.724;2023-03-05T04:48:09;8.50;65.90
68922;DHT22;55959;51.244;5.724;2023-03-05T04:50:36;8.50;66.00
68922;DHT22;55959;51.244;5.724;2023-03-05T04:53:02;8.50;66.00
68922;DHT22;55959;51.244;5.724;2023-03-05T04:55:28;8.40;66.10
68922;DHT22;55959;51.244;5.724;2023-03-05T04:57:55;8.40;66.20
68922;DHT22;55959;51.244;5.724;2023-03-05T05:00:20;8.40;66.20
68922;DHT22;55959;51.244;5.724;2023-03-05T05:02:48;8.40;66.30
68922;DHT22;55959;51.244;5.724;2023-03-05T05:05:18;8.40;66.20
68922;DHT22;55959;51.244;5.724;2023-03-05T05:07:52;8.40;66.30
68922;DHT22;55959;51.244;5.724;2023-03-05T05:10:19;8.30;66.40
68922;DHT22;55959;51.244;5.724;2023-03-05T05:12:45;8.30;66.40
68922;DHT22;55959;51.244;5.724;2023-03-05T05:15:12;8.30;66.40
68922;DHT22;55959;51.244;5.724;2023-03-05T05:17:38;8.30;66.60
68922;DHT22;55959;51.244;5.724;2023-03-05T05:20:04;8.30;66.60
68922;DHT22;55959;51.244;5.724;2023-03-05T05:22:31;8.30;66.60
68922;DHT22;55959;51.244;5.724;2023-03-05T05:24:57;8.30;66.70
68922;DHT22;55959;51.244;5.724;2023-03-05T05:27:24;8.30;66.70
68922;DHT22;55959;51.244;5.724;2023-03-05T05:29:49;8.30;66.70
68922;DHT22;55959;51.244;5.724;2023-03-05T05:32:20;8.30;66.80
68922;DHT22;55959;51.244;5.724;2023-03-05T05:34:48;8.30;66.80
68922;DHT22;55959;51.244;5.724;2023-03-05T05:37:17;8.20;66.70
68922;DHT22;55959;51.244;5.724;2023-03-05T05:39:43;8.20;66.80
68922;DHT22;55959;51.244;5.724;2023-03-05T05:42:17;8.20;66.80
68922;DHT22;55959;51.244;5.724;2023-03-05T05:44:44;8.20;67.20
68922;DHT22;55959;51.244;5.724;2023-03-05T05:47:12;8.20;67.00
68922;DHT22;55959;51.244;5.724;2023-03-05T05:49:38;8.20;67.00
68922;DHT22;55959;51.244;5.724;2023-03-05T05:52:04;8.20;67.00
68922;DHT22;55959;51.244;5.724;2023-03-05T05:54:30;8.20;67.00
68922;DHT22;55959;51.244;5.724;2023-03-05T05:56:56;8.20;67.00
68922;DHT22;55959;51.244;5.724;2023-03-05T05:59:22;8.20;67.00
68922;DHT22;55959;51.244;5.724;2023-03-05T06:01:47;8.20;67.00
68922;DHT22;55959;51.244;5.724;2023-03-05T06:04:16;8.20;67.00
68922;DHT22;55959;51.244;5.724;2023-03-05T06:06:43;8.20;67.10
68922;DHT22;55959;51.244;5.724;2023-03-05T06:09:09;8.20;67.00
68922;DHT22;55959;51.244;5.724;2023-03-05T06:11:36;8.20;67.00
68922;DHT22;55959;51.244;5.724;2023-03-05T06:14:02;8.20;67.10
68922;DHT22;55959;51.244;5.724;2023-03-05T06:16:29;8.20;67.20
68922;DHT22;55959;51.244;5.724;2023-03-05T06:18:55;8.20;67.20
68922;DHT22;55959;51.244;5.724;2023-03-05T06:21:21;8.20;67.20
68922;DHT22;55959;51.244;5.724;2023-03-05T06:23:48;8.20;67.20
68922;DHT22;55959;51.244;5.724;2023-03-05T06:26:17;8.20;67.20
68922;DHT22;55959;51.244;5.724;2023-03-05T06:28:44;8.20;67.20
68922;DHT22;55959;51.244;5.724;2023-03-05T06:31:13;8.20;67.20
68922;DHT22;55959;51.244;5.724;2023-03-05T06:33:40;8.20;67.20
68922;DHT22;55959;51.244;5.724;2023-03-05T06:36:09;8.20;67.30
68922;DHT22;55959;51.244;5.724;2023-03-05T06:38:37;8.20;67.20
68922;DHT22;55959;51.244;5.724;2023-03-05T06:41:05;8.20;67.30
68922;DHT22;55959;51.244;5.724;2023-03-05T06:43:37;8.20;67.30
68922;DHT22;55959;51.244;5.724;2023-03-05T06:46:06;8.20;67.40
68922;DHT22;55959;51.244;5.724;2023-03-05T06:48:33;8.20;67.40
68922;DHT22;55959;51.244;5.724;2023-03-05T06:50:59;8.20;67.40
68922;DHT22;55959;51.244;5.724;2023-03-05T06:53:25;8.20;67.50
68922;DHT22;55959;51.244;5.724;2023-03-05T06:55:53;8.20;67.40
68922;DHT22;55959;51.244;5.724;2023-03-05T06:58:19;8.20;67.50
68922;DHT22;55959;51.244;5.724;2023-03-05T07:00:45;8.20;67.60
68922;DHT22;55959;51.244;5.724;2023-03-05T07:03:12;8.20;67.60
68922;DHT22;55959;51.244;5.724;2023-03-05T07:05:38;8.20;67.60
68922;DHT22;55959;51.244;5.724;2023-03-05T07:08:06;8.20;67.70
68922;DHT22;55959;51.244;5.724;2023-03-05T07:10:37;8.20;68.60
68922;DHT22;55959;51.244;5.724;2023-03-05T07:13:04;8.20;67.80
68922;DHT22;55959;51.244;5.724;2023-03-05T07:15:30;8.20;67.90
68922;DHT22;55959;51.244;5.724;2023-03-05T07:17:56;8.20;67.90
68922;DHT22;55959;51.244;5.724;2023-03-05T07:20:22;8.20;68.00
68922;DHT22;55959;51.244;5.724;2023-03-05T07:22:47;8.20;68.00
68922;DHT22;55959;51.244;5.724;2023-03-05T07:25:14;8.20;68.00
68922;DHT22;55959;51.244;5.724;2023-03-05T07:27:46;8.20;68.10
68922;DHT22;55959;51.244;5.724;2023-03-05T07:30:13;8.20;68.10
68922;DHT22;55959;51.244;5.724;2023-03-05T07:32:39;8.20;68.20
68922;DHT22;55959;51.244;5.724;2023-03-05T07:35:07;8.20;68.30
68922;DHT22;55959;51.244;5.724;2023-03-05T07:37:33;8.20;68.20
68922;DHT22;55959;51.244;5.724;2023-03-05T07:39:58;8.20;68.30
68922;DHT22;55959;51.244;5.724;2023-03-05T07:42:24;8.30;68.40
68922;DHT22;55959;51.244;5.724;2023-03-05T07:44:50;8.30;68.40
68922;DHT22;55959;51.244;5.724;2023-03-05T07:47:16;8.30;69.20
68922;DHT22;55959;51.244;5.724;2023-03-05T07:49:41;8.30;68.40
68922;DHT22;55959;51.244;5.724;2023-03-05T07:52:08;8.30;68.40
68922;DHT22;55959;51.244;5.724;2023-03-05T07:54:34;8.30;68.50
68922;DHT22;55959;51.244;5.724;2023-03-05T07:57:04;8.30;68.60
68922;DHT22;55959;51.244;5.724;2023-03-05T07:59:30;8.20;68.70
68922;DHT22;55959;51.244;5.724;2023-03-05T08:01:56;8.20;68.90
68922;DHT22;55959;51.244;5.724;2023-03-05T08:04:22;8.20;69.10
68922;DHT22;55959;51.244;5.724;2023-03-05T08:06:48;8.20;69.20
68922;DHT22;55959;51.244;5.724;2023-03-05T08:09:15;8.30;69.40
68922;DHT22;55959;51.244;5.724;2023-03-05T08:11:41;8.30;69.40
68922;DHT22;55959;51.244;5.724;2023-03-05T08:14:07;8.30;69.40
68922;DHT22;55959;51.244;5.724;2023-03-05T08:16:33;8.30;69.60
68922;DHT22;55959;51.244;5.724;2023-03-05T08:19:00;8.30;69.80
68922;DHT22;55959;51.244;5.724;2023-03-05T08:21:31;8.30;69.90
68922;DHT22;55959;51.244;5.724;2023-03-05T08:24:04;8.30;70.00
68922;DHT22;55959;51.244;5.724;2023-03-05T08:26:33;8.30;70.00
68922;DHT22;55959;51.244;5.724;2023-03-05T08:29:02;8.40;70.30
68922;DHT22;55959;51.244;5.724;2023-03-05T08:31:28;8.40;70.50
68922;DHT22;55959;51.244;5.724;2023-03-05T08:33:59;8.50;70.60
68922;DHT22;55959;51.244;5.724;2023-03-05T08:36:27;8.50;70.60
68922;DHT22;55959;51.244;5.724;2023-03-05T08:38:53;8.50;70.70
68922;DHT22;55959;51.244;5.724;2023-03-05T08:41:20;8.50;70.70
68922;DHT22;55959;51.244;5.724;2023-03-05T08:43:46;8.60;70.80
68922;DHT22;55959;51.244;5.724;2023-03-05T08:46:12;8.60;70.70
68922;DHT22;55959;51.244;5.724;2023-03-05T08:48:39;8.60;70.60
68922;DHT22;55959;51.244;5.724;2023-03-05T08:51:07;8.60;70.60
68922;DHT22;55959;51.244;5.724;2023-03-05T08:53:37;8.60;70.70
68922;DHT22;55959;51.244;5.724;2023-03-05T08:56:04;8.70;70.80
68922;DHT22;55959;51.244;5.724;2023-03-05T08:58:30;8.70;71.60
68922;DHT22;55959;51.244;5.724;2023-03-05T09:00:56;8.70;70.80
68922;DHT22;55959;51.244;5.724;2023-03-05T09:03:23;8.70;70.80
68922;DHT22;55959;51.244;5.724;2023-03-05T09:05:49;8.70;70.90
68922;DHT22;55959;51.244;5.724;2023-03-05T09:08:16;8.70;70.80
68922;DHT22;55959;51.244;5.724;2023-03-05T09:10:42;8.80;70.80
68922;DHT22;55959;51.244;5.724;2023-03-05T09:13:10;8.80;70.80
68922;DHT22;55959;51.244;5.724;2023-03-05T09:15:37;8.80;70.80
68922;DHT22;55959;51.244;5.724;2023-03-05T09:18:03;8.80;70.80
68922;DHT22;55959;51.244;5.724;2023-03-05T09:20:29;8.80;70.80
68922;DHT22;55959;51.244;5.724;2023-03-05T09:22:55;8.90;70.80
68922;DHT22;55959;51.244;5.724;2023-03-05T09:25:21;8.90;70.80
68922;DHT22;55959;51.244;5.724;2023-03-05T09:27:47;8.90;70.40
68922;DHT22;55959;51.244;5.724;2023-03-05T09:30:14;8.90;70.20
68922;DHT22;55959;51.244;5.724;2023-03-05T09:32:40;9.00;70.40
68922;DHT22;55959;51.244;5.724;2023-03-05T09:35:07;9.00;70.50
68922;DHT22;55959;51.244;5.724;2023-03-05T09:37:33;9.00;70.60
68922;DHT22;55959;51.244;5.724;2023-03-05T09:39:59;9.10;70.20
68922;DHT22;55959;51.244;5.724;2023-03-05T09:50:57;9.20;69.40
68922;DHT22;55959;51.244;5.724;2023-03-05T09:53:44;9.20;69.10
68922;DHT22;55959;51.244;5.724;2023-03-05T09:56:20;9.20;69.20
68922;DHT22;55959;51.244;5.724;2023-03-05T09:59:01;9.20;69.30
68922;DHT22;55959;51.244;5.724;2023-03-05T10:01:36;9.20;69.20
68922;DHT22;55959;51.244;5.724;2023-03-05T10:07:03;9.30;69.10
68922;DHT22;55959;51.244;5.724;2023-03-05T10:09:43;9.30;69.20
68922;DHT22;55959;51.244;5.724;2023-03-05T10:12:24;9.40;68.40
68922;DHT22;55959;51.244;5.724;2023-03-05T10:15:11;9.40;68.00
68922;DHT22;55959;51.244;5.724;2023-03-05T10:18:04;9.40;67.90
68922;DHT22;55959;51.244;5.724;2023-03-05T10:20:57;9.50;68.00
68922;DHT22;55959;51.244;5.724;2023-03-05T10:35:02;9.60;67.20
68922;DHT22;55959;51.244;5.724;2023-03-05T10:40:56;9.70;67.40
68922;DHT22;55959;51.244;5.724;2023-03-05T10:43:35;9.70;67.20
68922;DHT22;55959;51.244;5.724;2023-03-05T10:46:14;9.80;66.90
68922;DHT22;55959;51.244;5.724;2023-03-05T10:48:57;9.80;66.50
68922;DHT22;55959;51.244;5.724;2023-03-05T10:51:35;9.80;66.00
68922;DHT22;55959;51.244;5.724;2023-03-05T10:54:22;9.80;65.60
68922;DHT22;55959;51.244;5.724;2023-03-05T11:03:06;9.70;65.40
68922;DHT22;55959;51.244;5.724;2023-03-05T11:05:45;9.70;65.60
68922;DHT22;55959;51.244;5.724;2023-03-05T11:08:32;9.60;65.90
68922;DHT22;55959;51.244;5.724;2023-03-05T11:11:17;9.70;66.10
68922;DHT22;55959;51.244;5.724;2023-03-05T11:16:24;9.70;65.80
68922;DHT22;55959;51.244;5.724;2023-03-05T11:19:24;9.70;65.50
68922;DHT22;55959;51.244;5.724;2023-03-05T11:22:16;9.70;65.20
68922;DHT22;55959;51.244;5.724;2023-03-05T11:25:12;9.60;65.20
68922;DHT22;55959;51.244;5.724;2023-03-05T11:27:53;9.60;65.40
68922;DHT22;55959;51.244;5.724;2023-03-05T11:30:31;9.60;65.60
68922;DHT22;55959;51.244;5.724;2023-03-05T11:33:19;9.60;65.70
68922;DHT22;55959;51.244;5.724;2023-03-05T11:35:47;9.60;65.90
68922;DHT22;55959;51.244;5.724;2023-03-05T11:38:26;9.50;66.20
68922;DHT22;55959;51.244;5.724;2023-03-05T11:40:54;9.60;67.60
68922;DHT22;55959;51.244;5.724;2023-03-05T11:43:23;9.60;67.20
68922;DHT22;55959;51.244;5.724;2023-03-05T11:45:59;9.60;67.40
68922;DHT22;55959;51.244;5.724;2023-03-05T11:48:36;9.60;67.50
68922;DHT22;55959;51.244;5.724;2023-03-05T11:51:16;9.70;67.60
68922;DHT22;55959;51.244;5.724;2023-03-05T11:53:50;9.70;67.60
68922;DHT22;55959;51.244;5.724;2023-03-05T11:56:20;9.70;67.70
68922;DHT22;55959;51.244;5.724;2023-03-05T11:59:22;9.80;67.80
68922;DHT22;55959;51.244;5.724;2023-03-05T12:01:54;9.80;67.80
68922;DHT22;55959;51.244;5.724;2023-03-05T12:04:21;9.80;67.60
68922;DHT22;55959;51.244;5.724;2023-03-05T12:06:59;9.90;67.40
68922;DHT22;55959;51.244;5.724;2023-03-05T12:09:53;9.90;66.90
68922;DHT22;55959;51.244;5.724;2023-03-05T12:18:04;9.90;66.70
68922;DHT22;55959;51.244;5.724;2023-03-05T12:23:53;9.90;65.90
68922;DHT22;55959;51.244;5.724;2023-03-05T12:29:50;9.90;65.50
68922;DHT22;55959;51.244;5.724;2023-03-05T12:34:59;9.80;66.00
68922;DHT22;55959;51.244;5.724;2023-03-05T12:40:25;9.90;65.90
68922;DHT22;55959;51.244;5.724;2023-03-05T12:42:58;9.90;65.30
68922;DHT22;55959;51.244;5.724;2023-03-05T12:45:35;9.90;65.20
68922;DHT22;55959;51.244;5.724;2023-03-05T12:58:14;9.90;65.30
68922;DHT22;55959;51.244;5.724;2023-03-05T13:00:47;9.90;65.00
68922;DHT22;55959;51.244;5.724;2023-03-05T13:03:21;9.90;64.70
68922;DHT22;55959;51.244;5.724;2023-03-05T13:05:55;10.00;64.30
68922;DHT22;55959;51.244;5.724;2023-03-05T13:11:00;10.00;63.70
68922;DHT22;55959;51.244;5.724;2023-03-05T13:13:30;10.00;63.70
68922;DHT22;55959;51.244;5.724;2023-03-05T13:15:59;10.00;63.50
68922;DHT22;55959;51.244;5.724;2023-03-05T13:18:28;10.00;63.40
68922;DHT22;55959;51.244;5.724;2023-03-05T13:21:13;10.10;63.00
68922;DHT22;55959;51.244;5.724;2023-03-05T13:26:17;10.10;63.10
68922;DHT22;55959;51.244;5.724;2023-03-05T13:29:14;10.10;63.00
68922;DHT22;55959;51.244;5.724;2023-03-05T13:37:15;10.10;62.50
68922;DHT22;55959;51.244;5.724;2023-03-05T13:42:30;10.10;62.90
68922;DHT22;55959;51.244;5.724;2023-03-05T13:45:26;10.10;62.80
68922;DHT22;55959;51.244;5.724;2023-03-05T13:48:03;10.20;63.10
68922;DHT22;55959;51.244;5.724;2023-03-05T13:50:37;10.20;63.00
68922;DHT22;55959;51.244;5.724;2023-03-05T13:53:22;10.20;63.00
68922;DHT22;55959;51.244;5.724;2023-03-05T13:56:04;10.20;63.10
68922;DHT22;55959;51.244;5.724;2023-03-05T13:58:48;10.30;63.20
68922;DHT22;55959;51.244;5.724;2023-03-05T14:01:23;10.30;62.90
68922;DHT22;55959;51.244;5.724;2023-03-05T14:04:02;10.30;62.90
68922;DHT22;55959;51.244;5.724;2023-03-05T14:06:30;10.30;63.00
68922;DHT22;55959;51.244;5.724;2023-03-05T14:09:07;10.30;62.90
68922;DHT22;55959;51.244;5.724;2023-03-05T14:11:57;10.40;63.00
68922;DHT22;55959;51.244;5.724;2023-03-05T14:14:23;10.40;62.50
68922;DHT22;55959;51.244;5.724;2023-03-05T14:16:50;10.40;62.50
68922;DHT22;55959;51.244;5.724;2023-03-05T14:19:35;10.40;62.40
68922;DHT22;55959;51.244;5.724;2023-03-05T14:22:03;10.40;61.90
68922;DHT22;55959;51.244;5.724;2023-03-05T14:24:30;10.40;61.50
68922;DHT22;55959;51.244;5.724;2023-03-05T14:27:05;10.30;61.20
68922;DHT22;55959;51.244;5.724;2023-03-05T14:29:45;10.30;61.40
68922;DHT22;55959;51.244;5.724;2023-03-05T14:32:37;10.30;61.70
68922;DHT22;55959;51.244;5.724;2023-03-05T14:35:04;10.30;61.90
68922;DHT22;55959;51.244;5.724;2023-03-05T14:40:06;10.30;61.20
68922;DHT22;55959;51.244;5.724;2023-03-05T14:43:01;10.30;61.50
68922;DHT22;55959;51.244;5.724;2023-03-05T14:45:37;10.30;61.60
68922;DHT22;55959;51.244;5.724;2023-03-05T14:48:06;10.30;61.80
68922;DHT22;55959;51.244;5.724;2023-03-05T14:50:40;10.30;62.10
68922;DHT22;55959;51.244;5.724;2023-03-05T14:53:12;10.30;62.30
68922;DHT22;55959;51.244;5.724;2023-03-05T14:55:40;10.30;62.50
68922;DHT22;55959;51.244;5.724;2023-03-05T14:58:15;10.40;62.30
68922;DHT22;55959;51.244;5.724;2023-03-05T15:00:43;10.30;62.10
68922;DHT22;55959;51.244;5.724;2023-03-05T15:03:15;10.30;62.00
68922;DHT22;55959;51.244;5.724;2023-03-05T15:05:42;10.30;62.00
68922;DHT22;55959;51.244;5.724;2023-03-05T15:08:21;10.30;62.10
68922;DHT22;55959;51.244;5.724;2023-03-05T15:10:48;10.20;62.30
68922;DHT22;55959;51.244;5.724;2023-03-05T15:13:15;10.20;62.70
68922;DHT22;55959;51.244;5.724;2023-03-05T15:15:42;10.10;63.10
68922;DHT22;55959;51.244;5.724;2023-03-05T15:18:15;10.10;63.30
68922;DHT22;55959;51.244;5.724;2023-03-05T15:20:43;10.10;63.50
68922;DHT22;55959;51.244;5.724;2023-03-05T15:23:09;10.00;63.50
68922;DHT22;55959;51.244;5.724;2023-03-05T15:25:38;10.00;63.50
68922;DHT22;55959;51.244;5.724;2023-03-05T15:28:04;9.90;63.70
68922;DHT22;55959;51.244;5.724;2023-03-05T15:30:33;9.90;63.80
68922;DHT22;55959;51.244;5.724;2023-03-05T15:33:03;9.90;64.10
68922;DHT22;55959;51.244;5.724;2023-03-05T15:35:33;9.80;64.20
68922;DHT22;55959;51.244;5.724;2023-03-05T15:37:59;9.80;64.40
68922;DHT22;55959;51.244;5.724;2023-03-05T15:40:25;9.70;64.60
68922;DHT22;55959;51.244;5.724;2023-03-05T15:42:54;9.70;64.70
68922;DHT22;55959;51.244;5.724;2023-03-05T15:45:20;9.70;64.80
68922;DHT22;55959;51.244;5.724;2023-03-05T15:47:51;9.70;65.00
68922;DHT22;55959;51.244;5.724;2023-03-05T15:50:18;9.60;65.10
68922;DHT22;55959;51.244;5.724;2023-03-05T15:52:45;9.60;65.30
68922;DHT22;55959;51.244;5.724;2023-03-05T15:55:12;9.60;65.40
68922;DHT22;55959;51.244;5.724;2023-03-05T15:57:42;9.60;65.60
68922;DHT22;55959;51.244;5.724;2023-03-05T16:00:10;9.60;65.60
68922;DHT22;55959;51.244;5.724;2023-03-05T16:02:36;9.60;65.60
68922;DHT22;55959;51.244;5.724;2023-03-05T16:05:03;9.50;65.60
68922;DHT22;55959;51.244;5.724;2023-03-05T16:07:29;9.50;65.60
68922;DHT22;55959;51.244;5.724;2023-03-05T16:09:55;9.50;65.60
68922;DHT22;55959;51.244;5.724;2023-03-05T16:12:25;9.50;65.80
68922;DHT22;55959;51.244;5.724;2023-03-05T16:14:53;9.50;65.80
68922;DHT22;55959;51.244;5.724;2023-03-05T16:17:21;9.40;65.80
68922;DHT22;55959;51.244;5.724;2023-03-05T16:19:50;9.40;65.90
68922;DHT22;55959;51.244;5.724;2023-03-05T16:22:17;9.40;65.90
68922;DHT22;55959;51.244;5.724;2023-03-05T16:24:43;9.40;66.00
68922;DHT22;55959;51.244;5.724;2023-03-05T16:27:09;9.30;66.00
68922;DHT22;55959;51.244;5.724;2023-03-05T16:29:35;9.30;66.20
68922;DHT22;55959;51.244;5.724;2023-03-05T16:32:02;9.30;66.20
68922;DHT22;55959;51.244;5.724;2023-03-05T16:34:29;9.30;66.40
68922;DHT22;55959;51.244;5.724;2023-03-05T16:36:57;9.30;66.40
68922;DHT22;55959;51.244;5.724;2023-03-05T16:39:25;9.30;66.60
68922;DHT22;55959;51.244;5.724;2023-03-05T16:41:51;9.30;66.60
68922;DHT22;55959;51.244;5.724;2023-03-05T16:44:18;9.20;66.60
68922;DHT22;55959;51.244;5.724;2023-03-05T16:46:44;9.30;66.70
68922;DHT22;55959;51.244;5.724;2023-03-05T16:49:13;9.20;66.80
68922;DHT22;55959;51.244;5.724;2023-03-05T16:51:40;9.20;66.80
68922;DHT22;55959;51.244;5.724;2023-03-05T16:54:06;9.20;66.90
68922;DHT22;55959;51.244;5.724;2023-03-05T16:56:32;9.20;67.90
68922;DHT22;55959;51.244;5.724;2023-03-05T16:58:57;9.20;67.00
68922;DHT22;55959;51.244;5.724;2023-03-05T17:01:24;9.20;67.10
68922;DHT22;55959;51.244;5.724;2023-03-05T17:03:51;9.20;67.20
68922;DHT22;55959;51.244;5.724;2023-03-05T17:06:23;9.20;67.20
68922;DHT22;55959;51.244;5.724;2023-03-05T17:08:51;9.20;67.20
68922;DHT22;55959;51.244;5.724;2023-03-05T17:11:18;9.20;67.30
68922;DHT22;55959;51.244;5.724;2023-03-05T17:13:45;9.20;67.40
68922;DHT22;55959;51.244;5.724;2023-03-05T17:16:13;9.20;67.40
68922;DHT22;55959;51.244;5.724;2023-03-05T17:18:40;9.20;67.50
68922;DHT22;55959;51.244;5.724;2023-03-05T17:21:07;9.10;67.60